sensor_id;sensor_type;location;lat;lon;timestamp;temperature;humidity
7117;DHT22;3600;48.568;7.870;2023-09-19T00:00:44;17.70;99.90
7117;DHT22;3600;48.568;7.870;2023-09-19T00:03:14;17.70;99.90
7117;DHT22;3600;48.568;7.870;2023-09-19T00:05:42;17.70;99.90
7117;DHT22;3600;48.568;7.870;2023-09-19T00:08:13;17.70;99.90
7117;DHT22;3600;48.568;7.870;2023-09-19T00:10:40;17.70;99.90
7117;DHT22;3600;48.568;7.870;2023-09-19T00:13:09;17.70;99.90
7117;DHT22;3600;48.568;7.870;2023-09-19T00:15:42;17.70;99.90
7117;DHT22;3600;48.568;7.870;2023-09-19T00:18:09;17.70;99.90
7117;DHT22;3600;48.568;7.870;2023-09-19T00:20:37;17.60;99.90
7117;DHT22;3600;48.568;7.870;2023-09-19T00:23:05;17.60;99.90
7117;DHT22;3600;48.568;7.870;2023-09-19T00:25:36;17.60;99.90
7117;DHT22;3600;48.568;7.870;2023-09-19T00:28:04;17.50;99.90
7117;DHT22;3600;48.568;7.870;2023-09-19T00:30:34;17.50;99.90
7117;DHT22;3600;48.568;7.870;2023-09-19T00:33:01;17.50;99.90
7117;DHT22;3600;48.568;7.870;2023-09-19T00:35:32;17.50;99.90
7117;DHT22;3600;48.568;7.870;2023-09-19T00:37:59;17.50;99.90
7117;DHT22;3600;48.568;7.870;2023-09-19T00:40:26;17.50;99.90
7117;DHT22;3600;48.568;7.870;2023-09-19T00:42:57;17.50;99.90
7117;DHT22;3600;48.568;7.870;2023-09-19T00:45:26;17.40;99.90
7117;DHT22;3600;48.568;7.870;2023-09-19T00:47:55;17.40;99.90
7117;DHT22;3600;48.568;7.870;2023-09-19T00:50:25;17.40;99.90
7117;DHT22;3600;48.568;7.870;2023-09-19T00:52:56;17.40;99.90
7117;DHT22;3600;48.568;7.870;2023-09-19T00:55:27;17.40;99.90
7117;DHT22;3600;48.568;7.870;2023-09-19T00:57:57;17.40;99.90
7117;DHT22;3600;48.568;7.870;2023-09-19T01:00:24;17.40;99.90
7117;DHT22;3600;48.568;7.870;2023-09-19T01:02:51;17.40;99.90
7117;DHT22;3600;48.568;7.870;2023-09-19T01:05:19;17.40;99.90
7117;DHT22;3600;48.568;7.870;2023-09-19T01:07:46;17.40;99.90
7117;DHT22;3600;48.568;7.870;2023-09-19T01:10:17;17.40;99.90
7117;DHT22;3600;48.568;7.870;2023-09-19T01:19:07;17.40;99.90
7117;DHT22;3600;48.568;7.870;2023-09-19T01:21:48;17.50;99.90
7117;DHT22;3600;48.568;7.870;2023-09-19T01:30:08;17.40;99.90
7117;DHT22;3600;48.568;7.870;2023-09-19T01:32:36;17.40;99.90
7117;DHT22;3600;48.568;7.870;2023-09-19T01:35:05;17.40;99.90
7117;DHT22;3600;48.568;7.870;2023-09-19T01:37:32;17.40;99.90
7117;DHT22;3600;48.568;7.870;2023-09-19T01:40:02;17.40;99.90
7117;DHT22;3600;48.568;7.870;2023-09-19T01:45:50;17.40;99.90
7117;DHT22;3600;48.568;7.870;2023-09-19T01:51:10;17.40;99.90
7117;DHT22;3600;48.568;7.870;2023-09-19T01:59:04;17.40;99.90
7117;DHT22;3600;48.568;7.870;2023-09-19T02:01:40;17.40;99.90
7117;DHT22;3600;48.568;7.870;2023-09-19T02:04:08;17.40;99.90
7117;DHT22;3600;48.568;7.870;2023-09-19T02:06:39;17.40;99.90
7117;DHT22;3600;48.568;7.870;2023-09-19T02:09:06;17.40;99.90
7117;DHT22;3600;48.568;7.870;2023-09-19T02:11:33;17.30;99.90
7117;DHT22;3600;48.568;7.870;2023-09-19T02:13:59;17.30;99.90
7117;DHT22;3600;48.568;7.870;2023-09-19T02:16:26;17.30;99.90
7117;DHT22;3600;48.568;7.870;2023-09-19T02:18:55;17.30;99.90
7117;DHT22;3600;48.568;7.870;2023-09-19T02:21:22;17.30;99.90
7117;DHT22;3600;48.568;7.870;2023-09-19T02:23:49;17.30;99.90
7117;DHT22;3600;48.568;7.870;2023-09-19T02:26:17;17.30;99.90
7117;DHT22;3600;48.568;7.870;2023-09-19T02:28:45;17.40;99.90
7117;DHT22;3600;48.568;7.870;2023-09-19T02:31:12;17.40;99.90
7117;DHT22;3600;48.568;7.870;2023-09-19T02:33:39;17.40;99.90
7117;DHT22;3600;48.568;7.870;2023-09-19T02:36:06;17.50;99.90
7117;DHT22;3600;48.568;7.870;2023-09-19T02:38:34;17.50;99.90
7117;DHT22;3600;48.568;7.870;2023-09-19T02:41:01;17.40;99.90
7117;DHT22;3600;48.568;7.870;2023-09-19T02:43:28;17.40;99.90
7117;DHT22;3600;48.568;7.870;2023-09-19T02:45:55;17.40;99.90
7117;DHT22;3600;48.568;7.870;2023-09-19T02:48:23;17.40;99.90
7117;DHT22;3600;48.568;7.870;2023-09-19T02:50:51;17.50;99.90
7117;DHT22;3600;48.568;7.870;2023-09-19T02:53:18;17.50;99.90
7117;DHT22;3600;48.568;7.870;2023-09-19T02:55:47;17.50;99.90
7117;DHT22;3600;48.568;7.870;2023-09-19T02:58:14;17.50;99.90
7117;DHT22;3600;48.568;7.870;2023-09-19T03:00:42;17.40;99.90
7117;DHT22;3600;48.568;7.870;2023-09-19T03:03:09;17.50;99.90
7117;DHT22;3600;48.568;7.870;2023-09-19T03:05:36;17.50;99.90
7117;DHT22;3600;48.568;7.870;2023-09-19T03:08:05;17.50;99.90
7117;DHT22;3600;48.568;7.870;2023-09-19T03:10:32;17.50;99.90
7117;DHT22;3600;48.568;7.870;2023-09-19T03:12:59;17.50;99.90
7117;DHT22;3600;48.568;7.870;2023-09-19T03:15:26;17.50;99.90
7117;DHT22;3600;48.568;7.870;2023-09-19T03:17:53;17.50;99.90
7117;DHT22;3600;48.568;7.870;2023-09-19T03:20:20;17.50;99.90
7117;DHT22;3600;48.568;7.870;2023-09-19T03:22:48;17.50;99.90
7117;DHT22;3600;48.568;7.870;2023-09-19T03:25:15;17.50;99.90
7117;DHT22;3600;48.568;7.870;2023-09-19T03:27:44;17.50;99.90
7117;DHT22;3600;48.568;7.870;2023-09-19T03:30:11;17.50;99.90
7117;DHT22;3600;48.568;7.870;2023-09-19T03:32:47;17.50;99.90
7117;DHT22;3600;48.568;7.870;2023-09-19T03:35:17;17.40;99.90
7117;DHT22;3600;48.568;7.870;2023-09-19T03:37:44;17.40;99.90
7117;DHT22;3600;48.568;7.870;2023-09-19T03:40:11;17.40;99.90
7117;DHT22;3600;48.568;7.870;2023-09-19T03:42:42;17.40;99.90
7117;DHT22;3600;48.568;7.870;2023-09-19T03:45:09;17.40;99.90
7117;DHT22;3600;48.568;7.870;2023-09-19T03:47:39;17.40;99.90
7117;DHT22;3600;48.568;7.870;2023-09-19T03:50:08;17.40;99.90
7117;DHT22;3600;48.568;7.870;2023-09-19T03:52:37;17.40;99.90
7117;DHT22;3600;48.568;7.870;2023-09-19T03:55:04;17.40;99.90
7117;DHT22;3600;48.568;7.870;2023-09-19T03:57:31;17.40;99.90
7117;DHT22;3600;48.568;7.870;2023-09-19T03:59:58;17.40;99.90
7117;DHT22;3600;48.568;7.870;2023-09-19T04:02:25;17.40;99.90
7117;DHT22;3600;48.568;7.870;2023-09-19T04:04:52;17.40;99.90
7117;DHT22;3600;48.568;7.870;2023-09-19T04:07:19;17.30;99.90
7117;DHT22;3600;48.568;7.870;2023-09-19T04:09:49;17.30;99.90
7117;DHT22;3600;48.568;7.870;2023-09-19T04:12:15;17.40;99.90
7117;DHT22;3600;48.568;7.870;2023-09-19T04:14:46;17.30;99.90
7117;DHT22;3600;48.568;7.870;2023-09-19T04:17:12;17.30;99.90
7117;DHT22;3600;48.568;7.870;2023-09-19T04:19:39;17.30;99.90
7117;DHT22;3600;48.568;7.870;2023-09-19T04:22:07;17.30;99.90
7117;DHT22;3600;48.568;7.870;2023-09-19T04:24:35;17.30;99.90
7117;DHT22;3600;48.568;7.870;2023-09-19T04:27:05;17.30;99.90
7117;DHT22;3600;48.568;7.870;2023-09-19T04:29:31;17.30;99.90
7117;DHT22;3600;48.568;7.870;2023-09-19T04:31:59;17.30;99.90
7117;DHT22;3600;48.568;7.870;2023-09-19T04:34:26;17.30;99.90
7117;DHT22;3600;48.568;7.870;2023-09-19T04:36:54;17.30;99.90
7117;DHT22;3600;48.568;7.870;2023-09-19T04:39:23;17.30;99.90
7117;DHT22;3600;48.568;7.870;2023-09-19T04:41:52;17.40;99.90
7117;DHT22;3600;48.568;7.870;2023-09-19T04:44:19;17.30;99.90
7117;DHT22;3600;48.568;7.870;2023-09-19T04:46:46;17.30;99.90
7117;DHT22;3600;48.568;7.870;2023-09-19T04:49:13;17.00;99.90
7117;DHT22;3600;48.568;7.870;2023-09-19T04:51:40;17.00;99.90
7117;DHT22;3600;48.568;7.870;2023-09-19T04:54:07;17.00;99.90
7117;DHT22;3600;48.568;7.870;2023-09-19T04:56:34;17.00;99.90
7117;DHT22;3600;48.568;7.870;2023-09-19T04:59:01;17.10;99.90
7117;DHT22;3600;48.568;7.870;2023-09-19T05:01:27;17.20;99.90
7117;DHT22;3600;48.568;7.870;2023-09-19T05:03:54;17.30;99.90
7117;DHT22;3600;48.568;7.870;2023-09-19T05:06:21;17.30;99.90
7117;DHT22;3600;48.568;7.870;2023-09-19T05:08:49;17.20;99.90
7117;DHT22;3600;48.568;7.870;2023-09-19T05:11:18;17.10;99.90
7117;DHT22;3600;48.568;7.870;2023-09-19T05:13:46;17.20;99.90
7117;DHT22;3600;48.568;7.870;2023-09-19T05:16:12;17.20;99.90
7117;DHT22;3600;48.568;7.870;2023-09-19T05:18:39;17.30;99.90
7117;DHT22;3600;48.568;7.870;2023-09-19T05:21:06;17.30;99.90
7117;DHT22;3600;48.568;7.870;2023-09-19T05:23:34;17.30;99.90
7117;DHT22;3600;48.568;7.870;2023-09-19T05:26:01;17.30;99.90
7117;DHT22;3600;48.568;7.870;2023-09-19T05:28:28;17.30;99.90
7117;DHT22;3600;48.568;7.870;2023-09-19T05:30:56;17.20;99.90
7117;DHT22;3600;48.568;7.870;2023-09-19T05:33:23;17.30;99.90
7117;DHT22;3600;48.568;7.870;2023-09-19T05:35:50;17.30;99.90
7117;DHT22;3600;48.568;7.870;2023-09-19T05:38:17;17.30;99.90
7117;DHT22;3600;48.568;7.870;2023-09-19T05:40:46;17.40;99.90
7117;DHT22;3600;48.568;7.870;2023-09-19T05:43:13;17.40;99.90
7117;DHT22;3600;48.568;7.870;2023-09-19T05:45:41;17.40;99.90
7117;DHT22;3600;48.568;7.870;2023-09-19T05:48:10;17.40;99.90
7117;DHT22;3600;48.568;7.870;2023-09-19T05:50:38;17.40;99.90
7117;DHT22;3600;48.568;7.870;2023-09-19T05:53:05;17.50;99.90
7117;DHT22;3600;48.568;7.870;2023-09-19T05:55:33;17.50;99.90
7117;DHT22;3600;48.568;7.870;2023-09-19T05:58:00;17.50;99.90
7117;DHT22;3600;48.568;7.870;2023-09-19T06:00:26;17.50;99.90
7117;DHT22;3600;48.568;7.870;2023-09-19T06:02:57;17.50;99.90
7117;DHT22;3600;48.568;7.870;2023-09-19T06:05:25;17.40;99.90
7117;DHT22;3600;48.568;7.870;2023-09-19T06:07:57;17.40;99.90
7117;DHT22;3600;48.568;7.870;2023-09-19T06:10:27;17.30;99.90
7117;DHT22;3600;48.568;7.870;2023-09-19T06:12:54;17.30;99.90
7117;DHT22;3600;48.568;7.870;2023-09-19T06:15:21;17.30;99.90
7117;DHT22;3600;48.568;7.870;2023-09-19T06:17:53;17.30;99.90
7117;DHT22;3600;48.568;7.870;2023-09-19T06:20:24;17.30;99.90
7117;DHT22;3600;48.568;7.870;2023-09-19T06:22:53;17.30;99.90
7117;DHT22;3600;48.568;7.870;2023-09-19T06:25:20;17.30;99.90
7117;DHT22;3600;48.568;7.870;2023-09-19T06:27:50;17.30;99.90
7117;DHT22;3600;48.568;7.870;2023-09-19T06:30:21;17.30;99.90
7117;DHT22;3600;48.568;7.870;2023-09-19T06:32:49;17.30;99.90
7117;DHT22;3600;48.568;7.870;2023-09-19T06:35:22;17.30;99.90
7117;DHT22;3600;48.568;7.870;2023-09-19T06:37:48;17.30;99.90
7117;DHT22;3600;48.568;7.870;2023-09-19T06:40:16;17.30;99.90
7117;DHT22;3600;48.568;7.870;2023-09-19T06:42:44;17.40;99.90
7117;DHT22;3600;48.568;7.870;2023-09-19T06:45:15;17.30;99.90
7117;DHT22;3600;48.568;7.870;2023-09-19T06:47:46;17.30;99.90
7117;DHT22;3600;48.568;7.870;2023-09-19T06:50:18;17.30;99.90
7117;DHT22;3600;48.568;7.870;2023-09-19T06:52:46;17.40;99.90
7117;DHT22;3600;48.568;7.870;2023-09-19T06:55:19;17.40;99.90
7117;DHT22;3600;48.568;7.870;2023-09-19T06:57:47;17.40;99.90
7117;DHT22;3600;48.568;7.870;2023-09-19T07:00:15;17.40;99.90
7117;DHT22;3600;48.568;7.870;2023-09-19T07:02:42;17.30;99.90
7117;DHT22;3600;48.568;7.870;2023-09-19T07:05:09;17.40;99.90
7117;DHT22;3600;48.568;7.870;2023-09-19T07:07:37;17.30;99.90
7117;DHT22;3600;48.568;7.870;2023-09-19T07:10:04;17.40;99.90
7117;DHT22;3600;48.568;7.870;2023-09-19T07:12:37;17.40;99.90
7117;DHT22;3600;48.568;7.870;2023-09-19T07:15:05;17.50;99.90
7117;DHT22;3600;48.568;7.870;2023-09-19T07:17:32;17.50;99.90
7117;DHT22;3600;48.568;7.870;2023-09-19T07:20:00;17.50;99.90
7117;DHT22;3600;48.568;7.870;2023-09-19T07:22:27;17.60;99.90
7117;DHT22;3600;48.568;7.870;2023-09-19T07:24:54;17.60;99.90
7117;DHT22;3600;48.568;7.870;2023-09-19T07:27:21;17.60;99.90
7117;DHT22;3600;48.568;7.870;2023-09-19T07:29:48;17.60;99.90
7117;DHT22;3600;48.568;7.870;2023-09-19T07:32:17;17.70;99.90
7117;DHT22;3600;48.568;7.870;2023-09-19T07:34:44;17.70;99.90
7117;DHT22;3600;48.568;7.870;2023-09-19T07:37:11;17.80;99.90
7117;DHT22;3600;48.568;7.870;2023-09-19T07:39:40;17.90;99.90
7117;DHT22;3600;48.568;7.870;2023-09-19T07:42:08;17.80;99.90
7117;DHT22;3600;48.568;7.870;2023-09-19T07:44:35;17.90;99.90
7117;DHT22;3600;48.568;7.870;2023-09-19T07:47:03;17.90;99.90
7117;DHT22;3600;48.568;7.870;2023-09-19T07:49:31;18.00;99.90
7117;DHT22;3600;48.568;7.870;2023-09-19T07:51:58;18.00;99.90
7117;DHT22;3600;48.568;7.870;2023-09-19T07:54:25;18.00;99.90
7117;DHT22;3600;48.568;7.870;2023-09-19T07:56:55;18.00;99.90
7117;DHT22;3600;48.568;7.870;2023-09-19T07:59:22;18.00;99.90
7117;DHT22;3600;48.568;7.870;2023-09-19T08:01:49;18.00;99.90
7117;DHT22;3600;48.568;7.870;2023-09-19T08:04:16;18.10;99.90
7117;DHT22;3600;48.568;7.870;2023-09-19T08:06:43;18.00;99.90
7117;DHT22;3600;48.568;7.870;2023-09-19T08:09:11;18.10;99.90
7117;DHT22;3600;48.568;7.870;2023-09-19T08:11:39;18.20;99.90
7117;DHT22;3600;48.568;7.870;2023-09-19T08:14:06;18.20;99.90
7117;DHT22;3600;48.568;7.870;2023-09-19T08:16:35;18.30;99.90
7117;DHT22;3600;48.568;7.870;2023-09-19T08:19:02;18.30;99.90
7117;DHT22;3600;48.568;7.870;2023-09-19T08:21:29;18.30;99.90
7117;DHT22;3600;48.568;7.870;2023-09-19T08:23:56;18.30;99.90
7117;DHT22;3600;48.568;7.870;2023-09-19T08:26:25;18.30;99.90
7117;DHT22;3600;48.568;7.870;2023-09-19T08:28:54;18.40;99.90
7117;DHT22;3600;48.568;7.870;2023-09-19T08:31:22;18.40;99.90
7117;DHT22;3600;48.568;7.870;2023-09-19T08:33:50;18.50;99.90
7117;DHT22;3600;48.568;7.870;2023-09-19T08:36:18;18.60;99.90
7117;DHT22;3600;48.568;7.870;2023-09-19T08:38:45;18.60;99.90
7117;DHT22;3600;48.568;7.870;2023-09-19T08:41:11;18.60;99.90
7117;DHT22;3600;48.568;7.870;2023-09-19T08:43:39;18.70;99.90
7117;DHT22;3600;48.568;7.870;2023-09-19T08:46:15;18.70;99.90
7117;DHT22;3600;48.568;7.870;2023-09-19T08:49:03;18.80;99.90
7117;DHT22;3600;48.568;7.870;2023-09-19T08:51:43;18.80;99.90
7117;DHT22;3600;48.568;7.870;2023-09-19T08:54:22;18.90;99.90
7117;DHT22;3600;48.568;7.870;2023-09-19T08:56:54;18.90;99.90
7117;DHT22;3600;48.568;7.870;2023-09-19T08:59:24;18.90;99.90
7117;DHT22;3600;48.568;7.870;2023-09-19T09:01:53;19.00;99.90
7117;DHT22;3600;48.568;7.870;2023-09-19T09:04:22;19.00;99.90
7117;DHT22;3600;48.568;7.870;2023-09-19T09:06:50;19.10;99.90
7117;DHT22;3600;48.568;7.870;2023-09-19T09:09:20;19.10;99.90
7117;DHT22;3600;48.568;7.870;2023-09-19T09:11:48;19.10;99.90
7117;DHT22;3600;48.568;7.870;2023-09-19T09:14:20;19.20;99.90
7117;DHT22;3600;48.568;7.870;2023-09-19T09:16:48;19.20;99.90
7117;DHT22;3600;48.568;7.870;2023-09-19T09:19:15;19.30;99.90
7117;DHT22;3600;48.568;7.870;2023-09-19T09:21:51;19.30;99.90
7117;DHT22;3600;48.568;7.870;2023-09-19T09:24:30;19.40;99.90
7117;DHT22;3600;48.568;7.870;2023-09-19T09:27:03;19.40;99.90
7117;DHT22;3600;48.568;7.870;2023-09-19T09:29:47;19.60;99.90
7117;DHT22;3600;48.568;7.870;2023-09-19T09:32:24;19.70;99.90
7117;DHT22;3600;48.568;7.870;2023-09-19T09:34:57;19.70;99.90
7117;DHT22;3600;48.568;7.870;2023-09-19T09:37:28;19.70;99.90
7117;DHT22;3600;48.568;7.870;2023-09-19T09:40:02;19.80;99.90
7117;DHT22;3600;48.568;7.870;2023-09-19T09:42:41;19.80;99.90
7117;DHT22;3600;48.568;7.870;2023-09-19T09:45:21;19.90;99.90
7117;DHT22;3600;48.568;7.870;2023-09-19T09:48:01;20.00;99.90
7117;DHT22;3600;48.568;7.870;2023-09-19T09:50:49;20.10;99.90
7117;DHT22;3600;48.568;7.870;2023-09-19T09:53:27;20.10;99.90
7117;DHT22;3600;48.568;7.870;2023-09-19T09:58:50;20.20;99.90
7117;DHT22;3600;48.568;7.870;2023-09-19T10:01:21;20.30;99.90
7117;DHT22;3600;48.568;7.870;2023-09-19T10:03:48;20.40;99.90
7117;DHT22;3600;48.568;7.870;2023-09-19T10:06:18;20.40;99.90
7117;DHT22;3600;48.568;7.870;2023-09-19T10:09:08;20.50;99.90
7117;DHT22;3600;48.568;7.870;2023-09-19T10:11:42;20.40;99.90
7117;DHT22;3600;48.568;7.870;2023-09-19T10:14:16;20.50;99.90
7117;DHT22;3600;48.568;7.870;2023-09-19T10:16:48;20.60;99.90
7117;DHT22;3600;48.568;7.870;2023-09-19T10:19:21;20.80;99.90
7117;DHT22;3600;48.568;7.870;2023-09-19T10:21:50;20.80;99.90
7117;DHT22;3600;48.568;7.870;2023-09-19T10:24:19;20.70;99.90
7117;DHT22;3600;48.568;7.870;2023-09-19T10:26:47;20.80;99.90
7117;DHT22;3600;48.568;7.870;2023-09-19T10:29:17;20.80;99.90
7117;DHT22;3600;48.568;7.870;2023-09-19T10:31:47;21.00;99.90
7117;DHT22;3600;48.568;7.870;2023-09-19T10:34:15;20.90;99.90
7117;DHT22;3600;48.568;7.870;2023-09-19T10:36:47;21.00;99.90
7117;DHT22;3600;48.568;7.870;2023-09-19T10:39:15;21.00;99.90
7117;DHT22;3600;48.568;7.870;2023-09-19T10:41:53;21.10;99.90
7117;DHT22;3600;48.568;7.870;2023-09-19T10:44:26;21.10;99.90
7117;DHT22;3600;48.568;7.870;2023-09-19T10:46:55;21.30;99.90
7117;DHT22;3600;48.568;7.870;2023-09-19T10:49:22;21.60;99.90
7117;DHT22;3600;48.568;7.870;2023-09-19T10:51:52;21.70;99.90
7117;DHT22;3600;48.568;7.870;2023-09-19T10:54:23;21.70;99.90
7117;DHT22;3600;48.568;7.870;2023-09-19T10:56:53;21.60;99.90
7117;DHT22;3600;48.568;7.870;2023-09-19T10:59:21;21.70;99.90
7117;DHT22;3600;48.568;7.870;2023-09-19T11:01:50;21.80;99.90
7117;DHT22;3600;48.568;7.870;2023-09-19T11:04:28;21.70;99.90
7117;DHT22;3600;48.568;7.870;2023-09-19T11:07:14;21.60;99.90
7117;DHT22;3600;48.568;7.870;2023-09-19T11:14:56;21.90;99.90
7117;DHT22;3600;48.568;7.870;2023-09-19T11:17:40;21.90;99.90
7117;DHT22;3600;48.568;7.870;2023-09-19T11:20:22;21.90;99.90
7117;DHT22;3600;48.568;7.870;2023-09-19T11:30:40;22.90;99.90
7117;DHT22;3600;48.568;7.870;2023-09-19T11:33:32;22.90;99.90
7117;DHT22;3600;48.568;7.870;2023-09-19T11:36:15;22.90;99.90
7117;DHT22;3600;48.568;7.870;2023-09-19T11:46:27;23.00;99.90
7117;DHT22;3600;48.568;7.870;2023-09-19T11:49:07;23.20;99.90
7117;DHT22;3600;48.568;7.870;2023-09-19T11:51:43;23.20;99.90
7117;DHT22;3600;48.568;7.870;2023-09-19T11:54:15;23.10;99.90
7117;DHT22;3600;48.568;7.870;2023-09-19T11:56:45;23.20;99.90
7117;DHT22;3600;48.568;7.870;2023-09-19T11:59:26;23.20;99.90
7117;DHT22;3600;48.568;7.870;2023-09-19T12:02:04;23.20;99.90
7117;DHT22;3600;48.568;7.870;2023-09-19T12:04:43;23.20;99.90
7117;DHT22;3600;48.568;7.870;2023-09-19T12:07:15;23.20;99.90
7117;DHT22;3600;48.568;7.870;2023-09-19T12:09:49;23.40;99.90
7117;DHT22;3600;48.568;7.870;2023-09-19T12:12:22;23.70;99.90
7117;DHT22;3600;48.568;7.870;2023-09-19T12:14:53;23.60;99.90
7117;DHT22;3600;48.568;7.870;2023-09-19T12:17:20;23.70;99.90
7117;DHT22;3600;48.568;7.870;2023-09-19T12:19:55;23.90;99.90
7117;DHT22;3600;48.568;7.870;2023-09-19T12:22:22;23.90;99.90
7117;DHT22;3600;48.568;7.870;2023-09-19T12:24:49;23.80;99.90
7117;DHT22;3600;48.568;7.870;2023-09-19T12:27:17;24.00;99.90
7117;DHT22;3600;48.568;7.870;2023-09-19T12:29:46;23.90;99.90
7117;DHT22;3600;48.568;7.870;2023-09-19T12:32:15;23.70;99.90
7117;DHT22;3600;48.568;7.870;2023-09-19T12:34:52;23.70;99.90
7117;DHT22;3600;48.568;7.870;2023-09-19T12:37:20;23.80;99.90
7117;DHT22;3600;48.568;7.870;2023-09-19T12:39:52;23.80;99.90
7117;DHT22;3600;48.568;7.870;2023-09-19T12:42:24;23.90;99.90
7117;DHT22;3600;48.568;7.870;2023-09-19T12:44:56;23.90;99.90
7117;DHT22;3600;48.568;7.870;2023-09-19T12:47:24;24.00;99.60
7117;DHT22;3600;48.568;7.870;2023-09-19T12:50:15;24.00;99.90
7117;DHT22;3600;48.568;7.870;2023-09-19T12:52:49;23.90;99.90
7117;DHT22;3600;48.568;7.870;2023-09-19T12:55:24;23.90;99.70
7117;DHT22;3600;48.568;7.870;2023-09-19T13:00:40;23.80;99.60
7117;DHT22;3600;48.568;7.870;2023-09-19T13:05:56;24.40;99.90
7117;DHT22;3600;48.568;7.870;2023-09-19T13:08:29;24.60;99.90
7117;DHT22;3600;48.568;7.870;2023-09-19T13:11:05;24.70;99.60
7117;DHT22;3600;48.568;7.870;2023-09-19T13:13:49;24.40;98.70
7117;DHT22;3600;48.568;7.870;2023-09-19T13:16:21;24.30;99.00
7117;DHT22;3600;48.568;7.870;2023-09-19T13:18:54;24.30;99.50
7117;DHT22;3600;48.568;7.870;2023-09-19T13:21:32;23.90;99.90
7117;DHT22;3600;48.568;7.870;2023-09-19T13:24:20;24.10;99.50
7117;DHT22;3600;48.568;7.870;2023-09-19T13:26:47;24.30;99.90
7117;DHT22;3600;48.568;7.870;2023-09-19T13:29:15;24.30;99.90
7117;DHT22;3600;48.568;7.870;2023-09-19T13:31:49;24.30;98.90
7117;DHT22;3600;48.568;7.870;2023-09-19T13:34:16;24.30;99.80
7117;DHT22;3600;48.568;7.870;2023-09-19T13:36:44;24.30;99.90
7117;DHT22;3600;48.568;7.870;2023-09-19T13:39:12;24.30;99.50
7117;DHT22;3600;48.568;7.870;2023-09-19T13:41:39;24.30;99.90
7117;DHT22;3600;48.568;7.870;2023-09-19T13:44:06;24.10;99.80
7117;DHT22;3600;48.568;7.870;2023-09-19T13:46:34;24.10;99.50
7117;DHT22;3600;48.568;7.870;2023-09-19T13:49:14;24.10;99.80
7117;DHT22;3600;48.568;7.870;2023-09-19T13:51:42;24.10;99.20
7117;DHT22;3600;48.568;7.870;2023-09-19T13:54:11;24.00;99.50
7117;DHT22;3600;48.568;7.870;2023-09-19T13:56:41;24.10;99.90
7117;DHT22;3600;48.568;7.870;2023-09-19T13:59:07;24.10;99.80
7117;DHT22;3600;48.568;7.870;2023-09-19T14:01:34;24.00;99.90
7117;DHT22;3600;48.568;7.870;2023-09-19T14:04:01;24.00;99.70
7117;DHT22;3600;48.568;7.870;2023-09-19T14:06:29;23.90;99.90
7117;DHT22;3600;48.568;7.870;2023-09-19T14:08:55;23.90;99.90
7117;DHT22;3600;48.568;7.870;2023-09-19T14:11:30;23.80;99.90
7117;DHT22;3600;48.568;7.870;2023-09-19T14:13:56;23.90;99.90
7117;DHT22;3600;48.568;7.870;2023-09-19T14:16:24;24.10;99.90
7117;DHT22;3600;48.568;7.870;2023-09-19T14:18:51;24.40;99.90
7117;DHT22;3600;48.568;7.870;2023-09-19T14:21:19;24.60;99.90
7117;DHT22;3600;48.568;7.870;2023-09-19T14:23:45;24.70;99.90
7117;DHT22;3600;48.568;7.870;2023-09-19T14:26:12;24.80;99.40
7117;DHT22;3600;48.568;7.870;2023-09-19T14:28:40;24.90;99.00
7117;DHT22;3600;48.568;7.870;2023-09-19T14:31:08;25.00;99.40
7117;DHT22;3600;48.568;7.870;2023-09-19T14:33:37;25.20;99.00
7117;DHT22;3600;48.568;7.870;2023-09-19T14:36:06;25.00;99.50
7117;DHT22;3600;48.568;7.870;2023-09-19T14:38:37;25.20;98.80
7117;DHT22;3600;48.568;7.870;2023-09-19T14:41:06;25.30;99.10
7117;DHT22;3600;48.568;7.870;2023-09-19T14:43:33;25.40;98.30
7117;DHT22;3600;48.568;7.870;2023-09-19T14:46:06;25.50;98.30
7117;DHT22;3600;48.568;7.870;2023-09-19T14:48:37;25.20;98.10
7117;DHT22;3600;48.568;7.870;2023-09-19T14:51:06;25.00;97.80
7117;DHT22;3600;48.568;7.870;2023-09-19T14:53:35;25.20;98.20
7117;DHT22;3600;48.568;7.870;2023-09-19T14:56:05;25.10;98.60
7117;DHT22;3600;48.568;7.870;2023-09-19T14:58:32;25.10;98.90
7117;DHT22;3600;48.568;7.870;2023-09-19T15:01:10;25.10;98.50
7117;DHT22;3600;48.568;7.870;2023-09-19T15:03:38;25.10;98.10
7117;DHT22;3600;48.568;7.870;2023-09-19T15:06:10;25.10;97.60
7117;DHT22;3600;48.568;7.870;2023-09-19T15:08:41;25.20;96.80
7117;DHT22;3600;48.568;7.870;2023-09-19T15:11:17;25.10;96.50
7117;DHT22;3600;48.568;7.870;2023-09-19T15:13:47;25.00;97.20
7117;DHT22;3600;48.568;7.870;2023-09-19T15:16:14;25.00;97.00
7117;DHT22;3600;48.568;7.870;2023-09-19T15:18:44;25.00;96.90
7117;DHT22;3600;48.568;7.870;2023-09-19T15:21:14;24.90;97.20
7117;DHT22;3600;48.568;7.870;2023-09-19T15:23:42;24.90;97.80
7117;DHT22;3600;48.568;7.870;2023-09-19T15:26:11;24.90;97.30
7117;DHT22;3600;48.568;7.870;2023-09-19T15:28:38;24.90;96.90
7117;DHT22;3600;48.568;7.870;2023-09-19T15:31:09;24.80;97.60
7117;DHT22;3600;48.568;7.870;2023-09-19T15:33:36;24.80;97.20
7117;DHT22;3600;48.568;7.870;2023-09-19T15:36:14;24.70;97.10
7117;DHT22;3600;48.568;7.870;2023-09-19T15:39:01;24.70;98.40
7117;DHT22;3600;48.568;7.870;2023-09-19T15:41:30;24.90;97.10
7117;DHT22;3600;48.568;7.870;2023-09-19T15:44:00;24.90;97.50
7117;DHT22;3600;48.568;7.870;2023-09-19T15:46:29;24.70;96.90
7117;DHT22;3600;48.568;7.870;2023-09-19T15:48:57;24.50;97.70
7117;DHT22;3600;48.568;7.870;2023-09-19T15:51:24;24.50;97.40
7117;DHT22;3600;48.568;7.870;2023-09-19T15:53:53;24.50;96.80
7117;DHT22;3600;48.568;7.870;2023-09-19T15:56:21;24.60;97.00
7117;DHT22;3600;48.568;7.870;2023-09-19T15:58:54;24.60;97.60
7117;DHT22;3600;48.568;7.870;2023-09-19T16:01:22;24.60;97.10
7117;DHT22;3600;48.568;7.870;2023-09-19T16:03:51;24.60;97.30
7117;DHT22;3600;48.568;7.870;2023-09-19T16:06:25;24.50;96.70
7117;DHT22;3600;48.568;7.870;2023-09-19T16:08:54;24.40;97.00
7117;DHT22;3600;48.568;7.870;2023-09-19T16:11:22;24.30;96.60
7117;DHT22;3600;48.568;7.870;2023-09-19T16:13:50;24.20;96.60
7117;DHT22;3600;48.568;7.870;2023-09-19T16:16:19;24.10;96.60
7117;DHT22;3600;48.568;7.870;2023-09-19T16:18:54;24.20;97.00
7117;DHT22;3600;48.568;7.870;2023-09-19T16:21:32;24.20;96.60
7117;DHT22;3600;48.568;7.870;2023-09-19T16:24:02;24.10;96.90
7117;DHT22;3600;48.568;7.870;2023-09-19T16:26:29;23.90;96.80
7117;DHT22;3600;48.568;7.870;2023-09-19T16:28:58;23.80;97.00
7117;DHT22;3600;48.568;7.870;2023-09-19T16:31:29;23.80;97.40
7117;DHT22;3600;48.568;7.870;2023-09-19T16:33:57;23.80;96.60
7117;DHT22;3600;48.568;7.870;2023-09-19T16:36:27;23.80;96.90
7117;DHT22;3600;48.568;7.870;2023-09-19T16:38:54;23.80;96.80
7117;DHT22;3600;48.568;7.870;2023-09-19T16:41:22;23.80;96.80
7117;DHT22;3600;48.568;7.870;2023-09-19T16:43:49;23.70;96.80
7117;DHT22;3600;48.568;7.870;2023-09-19T16:46:16;23.60;97.10
7117;DHT22;3600;48.568;7.870;2023-09-19T16:48:46;23.50;97.20
7117;DHT22;3600;48.568;7.870;2023-09-19T16:51:16;23.50;97.30
7117;DHT22;3600;48.568;7.870;2023-09-19T16:53:44;23.30;97.00
7117;DHT22;3600;48.568;7.870;2023-09-19T16:56:16;23.20;97.80
7117;DHT22;3600;48.568;7.870;2023-09-19T16:58:47;23.10;97.70
7117;DHT22;3600;48.568;7.870;2023-09-19T17:01:17;23.00;97.90
7117;DHT22;3600;48.568;7.870;2023-09-19T17:03:46;22.90;98.00
7117;DHT22;3600;48.568;7.870;2023-09-19T17:06:14;22.90;98.60
7117;DHT22;3600;48.568;7.870;2023-09-19T17:08:45;22.80;98.20
7117;DHT22;3600;48.568;7.870;2023-09-19T17:11:14;22.80;98.30